Airfield :
LOGIN :

Register | Disclaimer

   EN    FR    IT 

 










Legend :    VFR   Marginal VFR   IFR   Intensive IFR   Very Intensive IFR
Visi :
Ceiling :
>= 8 km
>= 3000ft
5 to 8 km
1000 to 3000 ft
1500m to 5 km
500 to 1000 ft
800 to 1500m
200 to 500 ft
< 800m
< 200 ft
Symbols :   Thunderstorms  Fog  Heavy snow  Heavy precipitations  Wind > 20 kt
SIGMETs :     Misc.  Thunderstorms  Icing  Turbulence  Mountain Waves  Volcanic Ashes






- Airport Elevation : 245 ft
- IATA code : BIQ


LFBZ - Biarritz

CURRENT METAR :
  • 241300Z AUTO 22008KT 170V270 5000 -RA BR FEW016/// BKN033/// BKN040/// ///TCU 06/05 Q1011

EXPIRED METARs :
  • 241230Z AUTO 23011G22KT 190V290 9999 BKN019/// BKN025/// BKN035/// ///CB 08/05 Q1011
  • 241200Z AUTO 24008KT 200V280 7000 -RA BKN019/// BKN024/// BKN029/// ///TCU 07/05 Q1011
  • 241130Z AUTO 26013G25KT 200V280 9999 -RA BKN024/// BKN034/// BKN047/// ///CB 08/05 Q1010
  • 241100Z AUTO 24011G23KT 190V280 9999 SCT021/// BKN026/// BKN034/// ///CB 09/06 Q1010
  • 241030Z AUTO 20005KT 130V300 5000 R27/1400U -RA BR SCT014/// BKN019/// BKN025/// ///TCU 06/05 Q1010
  • 241000Z AUTO 06009KT 020V100 9999 -TSRA FEW008/// SCT012/// BKN017/// ///CB 05/03 Q1009
  • 240930Z AUTO 21007KT 140V250 9999 SCT019/// BKN031/// BKN044/// ///CB 05/04 Q1009
  • 240900Z AUTO VRB04KT 9999 -TSSNRA BKN020/// BKN027/// BKN032/// ///CB 04/03 Q1009
  • 240830Z AUTO 24006KT 180V290 1800 -RA BR FEW011/// BKN023/// BKN034/// ///CB 04/03 Q1008

Expired Forecast.



MET'MAP, your aeronautical weather chart ! - Copyright ORBIFLY December 2007 - Disclaimer

ORBIFLY MET'MAP TEAM :

Programming & Development : Alexandra Zaïnal
Original concept : Baudouin d'Aumeries
Technical & hardware support : Manuel Goepfert
Assistance : Marc-Olivier Méhu




SOURCES & CREDITS :

   NOAA